Denver, Colorado
Current Conditions -  °F | °C
As of 5:58 AM on Tuesday 21 Oct 2014 (Local Time) from KBKF Reporting Station
Few Clouds Few Clouds  
Wind Chill: 53°   Ceiling: Unl
Heat Index: 53°   Visibility: 10mi
Dew Point: 37°   Wind: 12mph
Humidity: 53%   Direction: 200°SSW
Pressure: 30.05"   Gusts: NA
Location:  39.74°N, 104.99°W
Report Text: KBKF 211158Z 20010KT 10SM FEW100 FEW200 12/03 A3005 RMK AO2A SLP122 T01180025 10135 20109 53000
Loading
Personal Weather Stations






























Interactive Weather Map
Tropical Storm Tracking
New forecast layout! Learn more

10-Day Weather Forecast

Advertisements
Track Severe Weather on mobile